sensor_id;sensor_type;location;lat;lon;timestamp;P1;durP1;ratioP1;P2;durP2;ratioP2
1975;SDS011;988;48.016;7.800;2023-06-22T00:00:55;13.10;;;9.63;;
1975;SDS011;988;48.016;7.800;2023-06-22T00:03:21;10.00;;;9.00;;
1975;SDS011;988;48.016;7.800;2023-06-22T00:05:48;11.13;;;8.70;;
1975;SDS011;988;48.016;7.800;2023-06-22T00:08:14;13.37;;;9.77;;
1975;SDS011;988;48.016;7.800;2023-06-22T00:10:41;8.90;;;8.10;;
1975;SDS011;988;48.016;7.800;2023-06-22T00:13:07;11.10;;;8.60;;
1975;SDS011;988;48.016;7.800;2023-06-22T00:15:34;11.00;;;9.87;;
1975;SDS011;988;48.016;7.800;2023-06-22T00:18:01;9.97;;;9.07;;
1975;SDS011;988;48.016;7.800;2023-06-22T00:20:27;10.10;;;9.00;;
1975;SDS011;988;48.016;7.800;2023-06-22T00:22:54;10.90;;;8.90;;
1975;SDS011;988;48.016;7.800;2023-06-22T00:25:20;10.70;;;8.97;;
1975;SDS011;988;48.016;7.800;2023-06-22T00:27:46;12.80;;;8.60;;
1975;SDS011;988;48.016;7.800;2023-06-22T00:30:12;10.10;;;9.10;;
1975;SDS011;988;48.016;7.800;2023-06-22T00:32:38;11.40;;;9.13;;
1975;SDS011;988;48.016;7.800;2023-06-22T00:35:05;10.83;;;9.77;;
1975;SDS011;988;48.016;7.800;2023-06-22T00:37:30;13.57;;;10.27;;
1975;SDS011;988;48.016;7.800;2023-06-22T00:39:56;15.03;;;10.57;;
1975;SDS011;988;48.016;7.800;2023-06-22T00:42:22;11.10;;;10.10;;
1975;SDS011;988;48.016;7.800;2023-06-22T00:44:48;13.20;;;11.10;;
1975;SDS011;988;48.016;7.800;2023-06-22T00:47:17;12.63;;;11.33;;
1975;SDS011;988;48.016;7.800;2023-06-22T00:49:44;16.77;;;10.27;;
1975;SDS011;988;48.016;7.800;2023-06-22T00:52:11;13.40;;;11.03;;
1975;SDS011;988;48.016;7.800;2023-06-22T00:54:45;13.40;;;10.27;;
1975;SDS011;988;48.016;7.800;2023-06-22T00:57:15;11.40;;;10.30;;
1975;SDS011;988;48.016;7.800;2023-06-22T00:59:45;10.17;;;9.27;;
1975;SDS011;988;48.016;7.800;2023-06-22T01:02:13;12.70;;;10.23;;
1975;SDS011;988;48.016;7.800;2023-06-22T01:04:39;11.57;;;10.30;;
1975;SDS011;988;48.016;7.800;2023-06-22T01:12:32;10.07;;;9.17;;
1975;SDS011;988;48.016;7.800;2023-06-22T01:15:10;12.30;;;8.90;;
1975;SDS011;988;48.016;7.800;2023-06-22T01:17:40;10.27;;;9.37;;
1975;SDS011;988;48.016;7.800;2023-06-22T01:20:15;12.30;;;8.70;;
1975;SDS011;988;48.016;7.800;2023-06-22T01:22:48;11.93;;;8.43;;
1975;SDS011;988;48.016;7.800;2023-06-22T01:25:25;12.30;;;10.97;;
1975;SDS011;988;48.016;7.800;2023-06-22T01:28:13;11.20;;;10.00;;
1975;SDS011;988;48.016;7.800;2023-06-22T01:30:49;18.43;;;10.57;;
1975;SDS011;988;48.016;7.800;2023-06-22T01:33:28;13.53;;;12.20;;
1975;SDS011;988;48.016;7.800;2023-06-22T01:35:55;16.33;;;14.53;;
1975;SDS011;988;48.016;7.800;2023-06-22T01:38:21;15.90;;;13.00;;
1975;SDS011;988;48.016;7.800;2023-06-22T01:40:48;19.27;;;13.27;;
1975;SDS011;988;48.016;7.800;2023-06-22T01:43:14;18.60;;;13.37;;
1975;SDS011;988;48.016;7.800;2023-06-22T01:45:40;19.60;;;15.60;;
1975;SDS011;988;48.016;7.800;2023-06-22T01:48:06;18.80;;;16.90;;
1975;SDS011;988;48.016;7.800;2023-06-22T01:50:32;19.93;;;15.70;;
1975;SDS011;988;48.016;7.800;2023-06-22T01:52:58;20.80;;;15.83;;
1975;SDS011;988;48.016;7.800;2023-06-22T01:55:23;18.80;;;15.43;;
1975;SDS011;988;48.016;7.800;2023-06-22T01:57:49;17.73;;;15.93;;
1975;SDS011;988;48.016;7.800;2023-06-22T02:00:17;18.07;;;16.23;;
1975;SDS011;988;48.016;7.800;2023-06-22T02:02:48;23.83;;;15.90;;
1975;SDS011;988;48.016;7.800;2023-06-22T02:05:16;19.50;;;15.60;;
1975;SDS011;988;48.016;7.800;2023-06-22T02:07:49;18.27;;;15.23;;
1975;SDS011;988;48.016;7.800;2023-06-22T02:10:32;18.17;;;16.37;;
1975;SDS011;988;48.016;7.800;2023-06-22T02:12:59;19.93;;;16.60;;
1975;SDS011;988;48.016;7.800;2023-06-22T02:15:30;20.23;;;15.97;;
1975;SDS011;988;48.016;7.800;2023-06-22T02:17:56;19.30;;;16.20;;
1975;SDS011;988;48.016;7.800;2023-06-22T02:20:23;19.13;;;14.93;;
1975;SDS011;988;48.016;7.800;2023-06-22T02:22:49;27.00;;;16.90;;
1975;SDS011;988;48.016;7.800;2023-06-22T02:25:15;18.77;;;15.70;;
1975;SDS011;988;48.016;7.800;2023-06-22T02:27:41;23.53;;;17.47;;
1975;SDS011;988;48.016;7.800;2023-06-22T02:30:07;19.30;;;17.40;;
1975;SDS011;988;48.016;7.800;2023-06-22T02:32:34;21.50;;;16.80;;
1975;SDS011;988;48.016;7.800;2023-06-22T02:35:00;21.80;;;15.17;;
1975;SDS011;988;48.016;7.800;2023-06-22T02:37:29;18.60;;;15.20;;
1975;SDS011;988;48.016;7.800;2023-06-22T02:39:55;19.10;;;15.90;;
1975;SDS011;988;48.016;7.800;2023-06-22T02:42:20;19.10;;;16.60;;
1975;SDS011;988;48.016;7.800;2023-06-22T02:44:46;15.00;;;13.47;;
1975;SDS011;988;48.016;7.800;2023-06-22T02:47:12;19.57;;;15.37;;
1975;SDS011;988;48.016;7.800;2023-06-22T02:49:38;16.40;;;14.67;;
1975;SDS011;988;48.016;7.800;2023-06-22T02:52:04;19.83;;;13.50;;
1975;SDS011;988;48.016;7.800;2023-06-22T02:54:29;15.47;;;13.03;;
1975;SDS011;988;48.016;7.800;2023-06-22T02:56:55;15.17;;;12.23;;
1975;SDS011;988;48.016;7.800;2023-06-22T02:59:21;13.27;;;11.50;;
1975;SDS011;988;48.016;7.800;2023-06-22T03:01:48;25.17;;;14.17;;
1975;SDS011;988;48.016;7.800;2023-06-22T03:04:15;15.03;;;13.40;;
1975;SDS011;988;48.016;7.800;2023-06-22T03:06:41;17.40;;;12.67;;
1975;SDS011;988;48.016;7.800;2023-06-22T03:09:06;26.43;;;13.80;;
1975;SDS011;988;48.016;7.800;2023-06-22T03:11:32;17.23;;;13.30;;
1975;SDS011;988;48.016;7.800;2023-06-22T03:13:58;22.27;;;15.20;;
1975;SDS011;988;48.016;7.800;2023-06-22T03:16:26;19.63;;;13.33;;
1975;SDS011;988;48.016;7.800;2023-06-22T03:18:52;18.00;;;13.97;;
1975;SDS011;988;48.016;7.800;2023-06-22T03:21:19;20.87;;;14.97;;
1975;SDS011;988;48.016;7.800;2023-06-22T03:23:46;16.33;;;14.73;;
1975;SDS011;988;48.016;7.800;2023-06-22T03:26:12;18.27;;;12.47;;
1975;SDS011;988;48.016;7.800;2023-06-22T03:28:41;16.30;;;14.60;;
1975;SDS011;988;48.016;7.800;2023-06-22T03:31:07;20.13;;;13.40;;
1975;SDS011;988;48.016;7.800;2023-06-22T03:33:33;21.00;;;11.80;;
1975;SDS011;988;48.016;7.800;2023-06-22T03:35:58;22.07;;;13.57;;
1975;SDS011;988;48.016;7.800;2023-06-22T03:38:24;11.90;;;10.70;;
1975;SDS011;988;48.016;7.800;2023-06-22T03:40:50;13.43;;;11.33;;
1975;SDS011;988;48.016;7.800;2023-06-22T03:43:15;13.67;;;11.83;;
1975;SDS011;988;48.016;7.800;2023-06-22T03:45:41;16.07;;;12.67;;
1975;SDS011;988;48.016;7.800;2023-06-22T03:48:06;14.00;;;11.90;;
1975;SDS011;988;48.016;7.800;2023-06-22T03:50:32;17.97;;;12.60;;
1975;SDS011;988;48.016;7.800;2023-06-22T03:52:57;21.13;;;12.33;;
1975;SDS011;988;48.016;7.800;2023-06-22T03:55:23;16.47;;;11.50;;
1975;SDS011;988;48.016;7.800;2023-06-22T03:57:48;14.10;;;12.10;;
1975;SDS011;988;48.016;7.800;2023-06-22T04:00:14;22.40;;;12.00;;
1975;SDS011;988;48.016;7.800;2023-06-22T04:02:42;13.40;;;12.10;;
1975;SDS011;988;48.016;7.800;2023-06-22T04:05:08;16.43;;;13.37;;
1975;SDS011;988;48.016;7.800;2023-06-22T04:07:34;16.17;;;14.33;;
1975;SDS011;988;48.016;7.800;2023-06-22T04:10:02;14.33;;;11.57;;
1975;SDS011;988;48.016;7.800;2023-06-22T04:12:28;20.07;;;13.03;;
1975;SDS011;988;48.016;7.800;2023-06-22T04:14:54;17.33;;;12.43;;
1975;SDS011;988;48.016;7.800;2023-06-22T04:17:19;20.90;;;12.80;;
1975;SDS011;988;48.016;7.800;2023-06-22T04:19:45;19.90;;;12.43;;
1975;SDS011;988;48.016;7.800;2023-06-22T04:22:10;16.00;;;12.90;;
1975;SDS011;988;48.016;7.800;2023-06-22T04:24:36;21.00;;;14.63;;
1975;SDS011;988;48.016;7.800;2023-06-22T04:27:02;20.23;;;13.17;;
1975;SDS011;988;48.016;7.800;2023-06-22T04:29:29;22.60;;;14.30;;
1975;SDS011;988;48.016;7.800;2023-06-22T04:31:55;21.43;;;14.37;;
1975;SDS011;988;48.016;7.800;2023-06-22T04:34:30;25.17;;;13.93;;
1975;SDS011;988;48.016;7.800;2023-06-22T04:36:55;19.23;;;14.37;;
1975;SDS011;988;48.016;7.800;2023-06-22T04:39:21;23.03;;;14.77;;
1975;SDS011;988;48.016;7.800;2023-06-22T04:41:47;19.37;;;13.30;;
1975;SDS011;988;48.016;7.800;2023-06-22T04:44:17;18.40;;;13.27;;
1975;SDS011;988;48.016;7.800;2023-06-22T04:46:54;19.87;;;13.27;;
1975;SDS011;988;48.016;7.800;2023-06-22T04:49:33;23.27;;;12.07;;
1975;SDS011;988;48.016;7.800;2023-06-22T04:52:02;15.50;;;12.20;;
1975;SDS011;988;48.016;7.800;2023-06-22T04:54:29;23.30;;;13.03;;
1975;SDS011;988;48.016;7.800;2023-06-22T04:56:57;20.60;;;11.30;;
1975;SDS011;988;48.016;7.800;2023-06-22T04:59:24;12.90;;;10.43;;
1975;SDS011;988;48.016;7.800;2023-06-22T05:01:58;15.43;;;10.83;;
1975;SDS011;988;48.016;7.800;2023-06-22T05:04:25;11.37;;;10.30;;
1975;SDS011;988;48.016;7.800;2023-06-22T05:06:53;16.53;;;11.33;;
1975;SDS011;988;48.016;7.800;2023-06-22T05:09:19;13.27;;;10.13;;
1975;SDS011;988;48.016;7.800;2023-06-22T05:11:45;13.53;;;11.77;;
1975;SDS011;988;48.016;7.800;2023-06-22T05:14:12;15.30;;;12.47;;
1975;SDS011;988;48.016;7.800;2023-06-22T05:16:38;15.30;;;12.40;;
1975;SDS011;988;48.016;7.800;2023-06-22T05:19:04;21.07;;;12.50;;
1975;SDS011;988;48.016;7.800;2023-06-22T05:21:30;15.63;;;13.07;;
1975;SDS011;988;48.016;7.800;2023-06-22T05:23:56;14.37;;;12.90;;
1975;SDS011;988;48.016;7.800;2023-06-22T05:26:25;18.70;;;13.70;;
1975;SDS011;988;48.016;7.800;2023-06-22T05:28:52;15.83;;;12.67;;
1975;SDS011;988;48.016;7.800;2023-06-22T05:31:18;12.97;;;11.90;;
1975;SDS011;988;48.016;7.800;2023-06-22T05:33:47;17.40;;;12.60;;
1975;SDS011;988;48.016;7.800;2023-06-22T05:36:14;17.17;;;13.93;;
1975;SDS011;988;48.016;7.800;2023-06-22T05:38:40;13.67;;;12.40;;
1975;SDS011;988;48.016;7.800;2023-06-22T05:41:06;14.87;;;13.23;;
1975;SDS011;988;48.016;7.800;2023-06-22T05:43:32;14.87;;;13.40;;
1975;SDS011;988;48.016;7.800;2023-06-22T05:45:58;16.97;;;15.00;;
1975;SDS011;988;48.016;7.800;2023-06-22T05:48:25;14.90;;;13.40;;
1975;SDS011;988;48.016;7.800;2023-06-22T05:50:51;16.37;;;14.83;;
1975;SDS011;988;48.016;7.800;2023-06-22T05:53:17;17.47;;;13.03;;
1975;SDS011;988;48.016;7.800;2023-06-22T05:55:43;22.33;;;15.07;;
1975;SDS011;988;48.016;7.800;2023-06-22T05:58:08;17.73;;;16.00;;
1975;SDS011;988;48.016;7.800;2023-06-22T06:00:34;17.70;;;16.00;;
1975;SDS011;988;48.016;7.800;2023-06-22T06:03:00;17.83;;;16.30;;
1975;SDS011;988;48.016;7.800;2023-06-22T06:05:32;16.03;;;14.60;;
1975;SDS011;988;48.016;7.800;2023-06-22T06:08:02;16.80;;;15.20;;
1975;SDS011;988;48.016;7.800;2023-06-22T06:10:31;17.43;;;14.73;;
1975;SDS011;988;48.016;7.800;2023-06-22T06:12:57;17.63;;;16.03;;
1975;SDS011;988;48.016;7.800;2023-06-22T06:15:23;18.47;;;14.43;;
1975;SDS011;988;48.016;7.800;2023-06-22T06:17:49;17.37;;;15.87;;
1975;SDS011;988;48.016;7.800;2023-06-22T06:20:17;23.00;;;16.90;;
1975;SDS011;988;48.016;7.800;2023-06-22T06:22:44;17.40;;;16.10;;
1975;SDS011;988;48.016;7.800;2023-06-22T06:25:10;19.30;;;17.70;;
1975;SDS011;988;48.016;7.800;2023-06-22T06:27:41;21.43;;;19.53;;
1975;SDS011;988;48.016;7.800;2023-06-22T06:30:08;20.30;;;18.50;;
1975;SDS011;988;48.016;7.800;2023-06-22T06:32:34;21.20;;;19.40;;
1975;SDS011;988;48.016;7.800;2023-06-22T06:35:00;23.63;;;21.40;;
1975;SDS011;988;48.016;7.800;2023-06-22T06:37:26;22.40;;;20.70;;
1975;SDS011;988;48.016;7.800;2023-06-22T06:39:52;41.37;;;21.53;;
1975;SDS011;988;48.016;7.800;2023-06-22T06:42:18;23.60;;;21.37;;
1975;SDS011;988;48.016;7.800;2023-06-22T06:44:44;23.47;;;21.23;;
1975;SDS011;988;48.016;7.800;2023-06-22T06:47:10;22.70;;;20.73;;
1975;SDS011;988;48.016;7.800;2023-06-22T06:49:36;23.47;;;21.37;;
1975;SDS011;988;48.016;7.800;2023-06-22T06:52:02;23.77;;;21.87;;
1975;SDS011;988;48.016;7.800;2023-06-22T06:54:27;25.93;;;23.77;;
1975;SDS011;988;48.016;7.800;2023-06-22T06:56:53;24.40;;;21.90;;
1975;SDS011;988;48.016;7.800;2023-06-22T06:59:19;22.07;;;19.97;;
1975;SDS011;988;48.016;7.800;2023-06-22T07:01:44;21.70;;;19.87;;
1975;SDS011;988;48.016;7.800;2023-06-22T07:04:10;21.10;;;18.87;;
1975;SDS011;988;48.016;7.800;2023-06-22T07:06:35;26.27;;;21.97;;
1975;SDS011;988;48.016;7.800;2023-06-22T07:09:02;24.03;;;22.03;;
1975;SDS011;988;48.016;7.800;2023-06-22T07:11:28;25.07;;;22.20;;
1975;SDS011;988;48.016;7.800;2023-06-22T07:13:54;24.90;;;22.70;;
1975;SDS011;988;48.016;7.800;2023-06-22T07:16:21;22.43;;;20.67;;
1975;SDS011;988;48.016;7.800;2023-06-22T07:18:47;26.73;;;23.97;;
1975;SDS011;988;48.016;7.800;2023-06-22T07:21:13;24.10;;;22.20;;
1975;SDS011;988;48.016;7.800;2023-06-22T07:23:39;25.33;;;23.07;;
1975;SDS011;988;48.016;7.800;2023-06-22T07:26:04;23.70;;;21.13;;
1975;SDS011;988;48.016;7.800;2023-06-22T07:28:31;24.17;;;21.93;;
1975;SDS011;988;48.016;7.800;2023-06-22T07:31:03;25.10;;;22.67;;
1975;SDS011;988;48.016;7.800;2023-06-22T07:33:29;24.43;;;22.50;;
1975;SDS011;988;48.016;7.800;2023-06-22T07:35:56;23.27;;;21.60;;
1975;SDS011;988;48.016;7.800;2023-06-22T07:38:23;23.57;;;21.77;;
1975;SDS011;988;48.016;7.800;2023-06-22T07:40:49;24.40;;;22.30;;
1975;SDS011;988;48.016;7.800;2023-06-22T07:43:15;25.97;;;23.80;;
1975;SDS011;988;48.016;7.800;2023-06-22T07:45:44;24.77;;;22.90;;
1975;SDS011;988;48.016;7.800;2023-06-22T07:48:17;25.33;;;23.27;;
1975;SDS011;988;48.016;7.800;2023-06-22T07:50:44;26.40;;;24.60;;
1975;SDS011;988;48.016;7.800;2023-06-22T07:53:11;26.20;;;24.10;;
1975;SDS011;988;48.016;7.800;2023-06-22T07:55:38;26.23;;;24.30;;
1975;SDS011;988;48.016;7.800;2023-06-22T07:58:04;27.37;;;25.47;;
1975;SDS011;988;48.016;7.800;2023-06-22T08:00:29;27.40;;;25.50;;
1975;SDS011;988;48.016;7.800;2023-06-22T08:02:55;29.70;;;26.93;;
1975;SDS011;988;48.016;7.800;2023-06-22T08:05:21;28.70;;;26.70;;
1975;SDS011;988;48.016;7.800;2023-06-22T08:07:47;27.80;;;25.90;;
1975;SDS011;988;48.016;7.800;2023-06-22T08:10:13;28.17;;;26.27;;
1975;SDS011;988;48.016;7.800;2023-06-22T08:12:39;28.53;;;26.33;;
1975;SDS011;988;48.016;7.800;2023-06-22T08:15:05;28.43;;;26.40;;
1975;SDS011;988;48.016;7.800;2023-06-22T08:17:32;29.10;;;27.10;;
1975;SDS011;988;48.016;7.800;2023-06-22T08:19:58;28.80;;;26.73;;
1975;SDS011;988;48.016;7.800;2023-06-22T08:22:24;28.53;;;26.50;;
1975;SDS011;988;48.016;7.800;2023-06-22T08:24:49;27.97;;;26.27;;
1975;SDS011;988;48.016;7.800;2023-06-22T08:27:15;30.17;;;27.73;;
1975;SDS011;988;48.016;7.800;2023-06-22T08:29:42;27.83;;;25.73;;
1975;SDS011;988;48.016;7.800;2023-06-22T08:32:08;27.53;;;25.53;;
1975;SDS011;988;48.016;7.800;2023-06-22T08:34:34;28.00;;;25.90;;
1975;SDS011;988;48.016;7.800;2023-06-22T08:37:01;28.23;;;26.43;;
1975;SDS011;988;48.016;7.800;2023-06-22T08:39:31;27.60;;;25.80;;
1975;SDS011;988;48.016;7.800;2023-06-22T08:41:57;28.77;;;26.50;;
1975;SDS011;988;48.016;7.800;2023-06-22T08:44:23;29.40;;;27.33;;
1975;SDS011;988;48.016;7.800;2023-06-22T08:46:48;29.07;;;27.07;;
1975;SDS011;988;48.016;7.800;2023-06-22T08:49:14;28.63;;;26.57;;
1975;SDS011;988;48.016;7.800;2023-06-22T08:51:40;30.10;;;27.90;;
1975;SDS011;988;48.016;7.800;2023-06-22T08:54:05;30.97;;;28.57;;
1975;SDS011;988;48.016;7.800;2023-06-22T08:56:31;32.53;;;30.07;;
1975;SDS011;988;48.016;7.800;2023-06-22T08:58:57;30.43;;;28.40;;
1975;SDS011;988;48.016;7.800;2023-06-22T09:01:23;30.83;;;28.80;;
1975;SDS011;988;48.016;7.800;2023-06-22T09:03:48;28.43;;;26.83;;
1975;SDS011;988;48.016;7.800;2023-06-22T09:06:20;30.77;;;28.87;;
1975;SDS011;988;48.016;7.800;2023-06-22T09:08:46;28.43;;;26.43;;
1975;SDS011;988;48.016;7.800;2023-06-22T09:11:12;30.40;;;27.77;;
1975;SDS011;988;48.016;7.800;2023-06-22T09:13:38;28.57;;;26.67;;
1975;SDS011;988;48.016;7.800;2023-06-22T09:16:04;29.13;;;27.13;;
1975;SDS011;988;48.016;7.800;2023-06-22T09:18:29;30.90;;;28.63;;
1975;SDS011;988;48.016;7.800;2023-06-22T09:20:55;30.00;;;28.10;;
1975;SDS011;988;48.016;7.800;2023-06-22T09:23:21;32.53;;;30.43;;
1975;SDS011;988;48.016;7.800;2023-06-22T09:25:47;31.97;;;29.83;;
1975;SDS011;988;48.016;7.800;2023-06-22T09:28:13;31.47;;;29.47;;
1975;SDS011;988;48.016;7.800;2023-06-22T09:30:39;31.70;;;29.50;;
1975;SDS011;988;48.016;7.800;2023-06-22T09:33:04;30.07;;;28.03;;
1975;SDS011;988;48.016;7.800;2023-06-22T09:35:30;31.23;;;29.30;;
1975;SDS011;988;48.016;7.800;2023-06-22T09:37:56;30.77;;;28.70;;
1975;SDS011;988;48.016;7.800;2023-06-22T09:40:21;31.37;;;29.03;;
1975;SDS011;988;48.016;7.800;2023-06-22T09:42:47;29.83;;;28.13;;
1975;SDS011;988;48.016;7.800;2023-06-22T09:45:12;30.23;;;28.37;;
1975;SDS011;988;48.016;7.800;2023-06-22T09:47:38;30.90;;;28.77;;
1975;SDS011;988;48.016;7.800;2023-06-22T09:50:04;31.23;;;28.67;;
1975;SDS011;988;48.016;7.800;2023-06-22T09:52:30;33.80;;;31.07;;
1975;SDS011;988;48.016;7.800;2023-06-22T09:54:56;30.43;;;28.30;;
1975;SDS011;988;48.016;7.800;2023-06-22T09:57:21;27.97;;;26.17;;
1975;SDS011;988;48.016;7.800;2023-06-22T09:59:47;28.33;;;26.30;;
1975;SDS011;988;48.016;7.800;2023-06-22T10:02:13;29.20;;;26.90;;
1975;SDS011;988;48.016;7.800;2023-06-22T10:04:38;28.00;;;25.83;;
1975;SDS011;988;48.016;7.800;2023-06-22T10:07:05;27.60;;;25.43;;
1975;SDS011;988;48.016;7.800;2023-06-22T10:09:31;28.50;;;25.80;;
1975;SDS011;988;48.016;7.800;2023-06-22T10:11:56;30.30;;;27.87;;
1975;SDS011;988;48.016;7.800;2023-06-22T10:14:22;28.40;;;26.47;;
1975;SDS011;988;48.016;7.800;2023-06-22T10:16:49;28.70;;;26.47;;
1975;SDS011;988;48.016;7.800;2023-06-22T10:19:16;28.43;;;26.53;;
1975;SDS011;988;48.016;7.800;2023-06-22T10:21:41;29.20;;;26.87;;
1975;SDS011;988;48.016;7.800;2023-06-22T10:24:07;28.30;;;26.50;;
1975;SDS011;988;48.016;7.800;2023-06-22T10:26:33;27.77;;;25.83;;
1975;SDS011;988;48.016;7.800;2023-06-22T10:28:59;29.83;;;27.13;;
1975;SDS011;988;48.016;7.800;2023-06-22T10:31:25;28.63;;;26.47;;
1975;SDS011;988;48.016;7.800;2023-06-22T10:33:52;29.40;;;27.13;;
1975;SDS011;988;48.016;7.800;2023-06-22T10:36:18;27.60;;;25.77;;
1975;SDS011;988;48.016;7.800;2023-06-22T10:38:46;27.27;;;24.87;;
1975;SDS011;988;48.016;7.800;2023-06-22T10:41:12;28.40;;;26.23;;
1975;SDS011;988;48.016;7.800;2023-06-22T10:43:38;28.33;;;26.33;;
1975;SDS011;988;48.016;7.800;2023-06-22T10:46:04;27.20;;;25.20;;
1975;SDS011;988;48.016;7.800;2023-06-22T10:48:29;28.67;;;26.67;;
1975;SDS011;988;48.016;7.800;2023-06-22T10:50:55;26.40;;;24.53;;
1975;SDS011;988;48.016;7.800;2023-06-22T10:53:22;28.30;;;26.50;;
1975;SDS011;988;48.016;7.800;2023-06-22T10:55:47;27.83;;;26.00;;
1975;SDS011;988;48.016;7.800;2023-06-22T10:58:13;27.47;;;25.77;;
1975;SDS011;988;48.016;7.800;2023-06-22T11:00:39;27.03;;;25.33;;
1975;SDS011;988;48.016;7.800;2023-06-22T11:03:05;28.10;;;26.20;;
1975;SDS011;988;48.016;7.800;2023-06-22T11:05:31;29.57;;;27.33;;
1975;SDS011;988;48.016;7.800;2023-06-22T11:07:57;29.47;;;27.40;;
1975;SDS011;988;48.016;7.800;2023-06-22T11:10:23;27.87;;;26.07;;
1975;SDS011;988;48.016;7.800;2023-06-22T11:12:48;28.37;;;26.37;;
1975;SDS011;988;48.016;7.800;2023-06-22T11:15:14;29.53;;;27.53;;
1975;SDS011;988;48.016;7.800;2023-06-22T11:17:39;31.07;;;28.73;;
1975;SDS011;988;48.016;7.800;2023-06-22T11:20:05;29.10;;;27.07;;
1975;SDS011;988;48.016;7.800;2023-06-22T11:22:36;28.20;;;25.87;;
1975;SDS011;988;48.016;7.800;2023-06-22T11:25:05;29.07;;;26.87;;
1975;SDS011;988;48.016;7.800;2023-06-22T11:27:32;31.77;;;29.27;;
1975;SDS011;988;48.016;7.800;2023-06-22T11:29:57;30.23;;;28.03;;
1975;SDS011;988;48.016;7.800;2023-06-22T11:32:23;29.63;;;27.00;;
1975;SDS011;988;48.016;7.800;2023-06-22T11:34:48;29.93;;;27.73;;
1975;SDS011;988;48.016;7.800;2023-06-22T11:37:14;29.03;;;26.47;;
1975;SDS011;988;48.016;7.800;2023-06-22T11:39:40;28.70;;;26.53;;
1975;SDS011;988;48.016;7.800;2023-06-22T11:42:07;28.50;;;26.50;;
1975;SDS011;988;48.016;7.800;2023-06-22T11:44:33;29.93;;;27.83;;
1975;SDS011;988;48.016;7.800;2023-06-22T11:46:58;27.77;;;25.70;;
1975;SDS011;988;48.016;7.800;2023-06-22T11:49:25;29.07;;;27.17;;
1975;SDS011;988;48.016;7.800;2023-06-22T11:51:54;27.47;;;25.37;;
1975;SDS011;988;48.016;7.800;2023-06-22T11:54:20;26.10;;;24.40;;
1975;SDS011;988;48.016;7.800;2023-06-22T11:56:46;28.67;;;26.47;;
1975;SDS011;988;48.016;7.800;2023-06-22T11:59:13;28.43;;;26.00;;
1975;SDS011;988;48.016;7.800;2023-06-22T12:01:38;28.80;;;26.07;;
1975;SDS011;988;48.016;7.800;2023-06-22T12:04:04;29.13;;;27.00;;
1975;SDS011;988;48.016;7.800;2023-06-22T12:06:33;28.00;;;26.00;;
1975;SDS011;988;48.016;7.800;2023-06-22T12:09:03;29.10;;;27.00;;
1975;SDS011;988;48.016;7.800;2023-06-22T12:11:29;27.67;;;25.73;;
1975;SDS011;988;48.016;7.800;2023-06-22T12:13:55;28.23;;;25.53;;
1975;SDS011;988;48.016;7.800;2023-06-22T12:16:21;28.23;;;25.93;;
1975;SDS011;988;48.016;7.800;2023-06-22T12:18:46;28.93;;;26.70;;
1975;SDS011;988;48.016;7.800;2023-06-22T12:21:12;27.63;;;25.70;;
1975;SDS011;988;48.016;7.800;2023-06-22T12:23:38;27.47;;;25.23;;
1975;SDS011;988;48.016;7.800;2023-06-22T12:26:03;28.63;;;26.17;;
1975;SDS011;988;48.016;7.800;2023-06-22T12:28:29;29.63;;;27.43;;
1975;SDS011;988;48.016;7.800;2023-06-22T12:30:54;29.90;;;27.60;;
1975;SDS011;988;48.016;7.800;2023-06-22T12:33:20;28.27;;;25.80;;
1975;SDS011;988;48.016;7.800;2023-06-22T12:35:46;28.27;;;25.97;;
1975;SDS011;988;48.016;7.800;2023-06-22T12:38:14;27.20;;;25.10;;
1975;SDS011;988;48.016;7.800;2023-06-22T12:40:39;27.70;;;25.40;;
1975;SDS011;988;48.016;7.800;2023-06-22T12:43:05;28.07;;;26.10;;
1975;SDS011;988;48.016;7.800;2023-06-22T12:45:32;26.57;;;24.47;;
1975;SDS011;988;48.016;7.800;2023-06-22T12:47:58;26.57;;;24.30;;
1975;SDS011;988;48.016;7.800;2023-06-22T12:50:24;26.27;;;23.77;;
1975;SDS011;988;48.016;7.800;2023-06-22T12:52:50;26.00;;;24.07;;
1975;SDS011;988;48.016;7.800;2023-06-22T12:55:16;26.43;;;24.33;;
1975;SDS011;988;48.016;7.800;2023-06-22T12:57:42;26.90;;;24.57;;
1975;SDS011;988;48.016;7.800;2023-06-22T13:00:07;26.23;;;23.70;;
1975;SDS011;988;48.016;7.800;2023-06-22T13:02:35;25.27;;;23.10;;
1975;SDS011;988;48.016;7.800;2023-06-22T13:05:01;25.70;;;23.70;;
1975;SDS011;988;48.016;7.800;2023-06-22T13:07:27;26.30;;;23.77;;
1975;SDS011;988;48.016;7.800;2023-06-22T13:09:53;26.07;;;23.77;;
1975;SDS011;988;48.016;7.800;2023-06-22T13:12:19;27.37;;;25.00;;
1975;SDS011;988;48.016;7.800;2023-06-22T13:14:45;27.00;;;24.80;;
1975;SDS011;988;48.016;7.800;2023-06-22T13:17:12;27.63;;;24.63;;
1975;SDS011;988;48.016;7.800;2023-06-22T13:19:38;26.60;;;24.27;;
1975;SDS011;988;48.016;7.800;2023-06-22T13:22:04;26.10;;;24.10;;
1975;SDS011;988;48.016;7.800;2023-06-22T13:24:30;25.43;;;23.40;;
1975;SDS011;988;48.016;7.800;2023-06-22T13:26:56;25.90;;;23.90;;
1975;SDS011;988;48.016;7.800;2023-06-22T13:29:21;26.20;;;24.50;;
1975;SDS011;988;48.016;7.800;2023-06-22T13:31:47;25.60;;;23.33;;
1975;SDS011;988;48.016;7.800;2023-06-22T13:34:12;27.37;;;24.80;;
1975;SDS011;988;48.016;7.800;2023-06-22T13:36:38;27.03;;;24.13;;
1975;SDS011;988;48.016;7.800;2023-06-22T13:39:04;26.80;;;24.63;;
1975;SDS011;988;48.016;7.800;2023-06-22T13:41:29;26.50;;;24.10;;
1975;SDS011;988;48.016;7.800;2023-06-22T13:43:55;26.80;;;24.70;;
1975;SDS011;988;48.016;7.800;2023-06-22T13:46:21;26.97;;;24.67;;
1975;SDS011;988;48.016;7.800;2023-06-22T13:48:46;25.80;;;23.13;;
1975;SDS011;988;48.016;7.800;2023-06-22T13:51:12;26.77;;;24.43;;
1975;SDS011;988;48.016;7.800;2023-06-22T13:53:37;26.07;;;23.87;;
1975;SDS011;988;48.016;7.800;2023-06-22T13:56:03;26.33;;;24.17;;
1975;SDS011;988;48.016;7.800;2023-06-22T13:58:29;26.93;;;24.33;;
1975;SDS011;988;48.016;7.800;2023-06-22T14:00:54;24.50;;;22.33;;
1975;SDS011;988;48.016;7.800;2023-06-22T14:03:20;25.53;;;23.30;;
1975;SDS011;988;48.016;7.800;2023-06-22T14:05:45;25.97;;;23.60;;
1975;SDS011;988;48.016;7.800;2023-06-22T14:08:11;26.00;;;24.00;;
1975;SDS011;988;48.016;7.800;2023-06-22T14:10:37;25.03;;;22.70;;
1975;SDS011;988;48.016;7.800;2023-06-22T14:13:03;25.40;;;23.00;;
1975;SDS011;988;48.016;7.800;2023-06-22T14:15:30;25.83;;;23.73;;
1975;SDS011;988;48.016;7.800;2023-06-22T14:17:57;24.27;;;22.57;;
1975;SDS011;988;48.016;7.800;2023-06-22T14:20:22;24.47;;;22.13;;
1975;SDS011;988;48.016;7.800;2023-06-22T14:22:48;25.23;;;23.27;;
1975;SDS011;988;48.016;7.800;2023-06-22T14:25:13;25.53;;;23.33;;
1975;SDS011;988;48.016;7.800;2023-06-22T14:27:39;26.07;;;23.70;;
1975;SDS011;988;48.016;7.800;2023-06-22T14:30:04;25.13;;;22.50;;
1975;SDS011;988;48.016;7.800;2023-06-22T14:32:31;25.10;;;22.60;;
1975;SDS011;988;48.016;7.800;2023-06-22T14:34:56;24.27;;;22.63;;
1975;SDS011;988;48.016;7.800;2023-06-22T14:37:22;23.90;;;22.20;;
1975;SDS011;988;48.016;7.800;2023-06-22T14:39:47;26.50;;;24.03;;
1975;SDS011;988;48.016;7.800;2023-06-22T14:42:13;25.93;;;23.80;;
1975;SDS011;988;48.016;7.800;2023-06-22T14:44:38;25.63;;;23.00;;
1975;SDS011;988;48.016;7.800;2023-06-22T14:47:04;26.07;;;23.80;;
1975;SDS011;988;48.016;7.800;2023-06-22T14:49:30;26.50;;;23.97;;
1975;SDS011;988;48.016;7.800;2023-06-22T14:51:55;25.77;;;23.70;;
1975;SDS011;988;48.016;7.800;2023-06-22T14:54:21;26.83;;;24.50;;
1975;SDS011;988;48.016;7.800;2023-06-22T14:56:47;25.10;;;22.80;;
1975;SDS011;988;48.016;7.800;2023-06-22T14:59:13;25.17;;;23.40;;
1975;SDS011;988;48.016;7.800;2023-06-22T15:01:39;25.53;;;23.40;;
1975;SDS011;988;48.016;7.800;2023-06-22T15:04:05;25.00;;;23.10;;